sensor_id;sensor_type;location;lat;lon;timestamp;P1;durP1;ratioP1;P2;durP2;ratioP2
75230;SDS011;63814;50.118;8.714;2022-11-20T00:02:05;22.90;;;18.60;;
75230;SDS011;63814;50.118;8.714;2022-11-20T00:04:31;24.27;;;18.17;;
75230;SDS011;63814;50.118;8.714;2022-11-20T00:06:57;21.27;;;17.70;;
75230;SDS011;63814;50.118;8.714;2022-11-20T00:09:24;24.17;;;19.13;;
75230;SDS011;63814;50.118;8.714;2022-11-20T00:11:50;22.93;;;18.13;;
75230;SDS011;63814;50.118;8.714;2022-11-20T00:14:18;25.30;;;19.23;;
75230;SDS011;63814;50.118;8.714;2022-11-20T00:16:45;23.17;;;18.17;;
75230;SDS011;63814;50.118;8.714;2022-11-20T00:19:11;23.10;;;18.00;;
75230;SDS011;63814;50.118;8.714;2022-11-20T00:21:38;23.83;;;18.67;;
75230;SDS011;63814;50.118;8.714;2022-11-20T00:24:05;24.20;;;18.10;;
75230;SDS011;63814;50.118;8.714;2022-11-20T00:26:34;24.03;;;19.07;;
75230;SDS011;63814;50.118;8.714;2022-11-20T00:29:00;24.77;;;19.63;;
75230;SDS011;63814;50.118;8.714;2022-11-20T00:31:28;24.63;;;19.13;;
75230;SDS011;63814;50.118;8.714;2022-11-20T00:33:58;24.10;;;18.97;;
75230;SDS011;63814;50.118;8.714;2022-11-20T00:36:25;22.93;;;18.27;;
75230;SDS011;63814;50.118;8.714;2022-11-20T00:38:53;25.37;;;19.40;;
75230;SDS011;63814;50.118;8.714;2022-11-20T00:41:20;23.67;;;18.93;;
75230;SDS011;63814;50.118;8.714;2022-11-20T00:43:47;21.27;;;16.87;;
75230;SDS011;63814;50.118;8.714;2022-11-20T00:46:14;24.13;;;18.10;;
75230;SDS011;63814;50.118;8.714;2022-11-20T00:48:43;24.73;;;19.27;;
75230;SDS011;63814;50.118;8.714;2022-11-20T00:51:11;23.80;;;19.33;;
75230;SDS011;63814;50.118;8.714;2022-11-20T00:53:39;25.63;;;19.23;;
75230;SDS011;63814;50.118;8.714;2022-11-20T00:56:06;24.00;;;18.20;;
75230;SDS011;63814;50.118;8.714;2022-11-20T00:58:34;22.43;;;18.57;;
75230;SDS011;63814;50.118;8.714;2022-11-20T01:01:02;24.13;;;18.93;;
75230;SDS011;63814;50.118;8.714;2022-11-20T01:03:31;21.60;;;17.30;;
75230;SDS011;63814;50.118;8.714;2022-11-20T01:06:02;25.47;;;19.17;;
75230;SDS011;63814;50.118;8.714;2022-11-20T01:08:30;26.80;;;19.30;;
75230;SDS011;63814;50.118;8.714;2022-11-20T01:10:58;25.10;;;19.47;;
75230;SDS011;63814;50.118;8.714;2022-11-20T01:13:25;23.00;;;18.80;;
75230;SDS011;63814;50.118;8.714;2022-11-20T01:16:04;23.57;;;18.83;;
75230;SDS011;63814;50.118;8.714;2022-11-20T01:18:32;25.47;;;19.70;;
75230;SDS011;63814;50.118;8.714;2022-11-20T01:21:00;24.30;;;20.00;;
75230;SDS011;63814;50.118;8.714;2022-11-20T01:23:31;24.57;;;19.47;;
75230;SDS011;63814;50.118;8.714;2022-11-20T01:25:59;22.93;;;18.63;;
75230;SDS011;63814;50.118;8.714;2022-11-20T01:28:26;24.97;;;19.00;;
75230;SDS011;63814;50.118;8.714;2022-11-20T01:30:53;23.87;;;19.20;;
75230;SDS011;63814;50.118;8.714;2022-11-20T01:33:19;26.37;;;19.43;;
75230;SDS011;63814;50.118;8.714;2022-11-20T01:35:46;23.90;;;19.20;;
75230;SDS011;63814;50.118;8.714;2022-11-20T01:38:12;24.37;;;18.00;;
75230;SDS011;63814;50.118;8.714;2022-11-20T01:40:40;25.00;;;19.77;;
75230;SDS011;63814;50.118;8.714;2022-11-20T01:43:09;26.23;;;20.13;;
75230;SDS011;63814;50.118;8.714;2022-11-20T01:48:41;26.10;;;18.33;;
75230;SDS011;63814;50.118;8.714;2022-11-20T01:51:14;26.57;;;20.23;;
75230;SDS011;63814;50.118;8.714;2022-11-20T01:53:45;27.47;;;20.17;;
75230;SDS011;63814;50.118;8.714;2022-11-20T01:56:13;24.80;;;19.47;;
75230;SDS011;63814;50.118;8.714;2022-11-20T01:58:42;28.67;;;21.47;;
75230;SDS011;63814;50.118;8.714;2022-11-20T02:01:13;26.63;;;19.70;;
75230;SDS011;63814;50.118;8.714;2022-11-20T02:03:40;26.60;;;20.30;;
75230;SDS011;63814;50.118;8.714;2022-11-20T02:06:10;27.50;;;20.57;;
75230;SDS011;63814;50.118;8.714;2022-11-20T02:08:41;24.00;;;19.17;;
75230;SDS011;63814;50.118;8.714;2022-11-20T02:11:08;29.47;;;20.97;;
75230;SDS011;63814;50.118;8.714;2022-11-20T02:13:36;26.93;;;20.00;;
75230;SDS011;63814;50.118;8.714;2022-11-20T02:16:15;27.70;;;20.27;;
75230;SDS011;63814;50.118;8.714;2022-11-20T02:18:45;26.00;;;21.00;;
75230;SDS011;63814;50.118;8.714;2022-11-20T02:21:14;26.17;;;19.90;;
75230;SDS011;63814;50.118;8.714;2022-11-20T02:23:57;28.37;;;20.67;;
75230;SDS011;63814;50.118;8.714;2022-11-20T02:26:26;27.33;;;21.07;;
75230;SDS011;63814;50.118;8.714;2022-11-20T02:28:56;27.63;;;21.23;;
75230;SDS011;63814;50.118;8.714;2022-11-20T02:31:24;29.43;;;22.17;;
75230;SDS011;63814;50.118;8.714;2022-11-20T02:33:54;27.30;;;21.07;;
75230;SDS011;63814;50.118;8.714;2022-11-20T02:36:21;29.20;;;21.97;;
75230;SDS011;63814;50.118;8.714;2022-11-20T02:38:50;29.13;;;22.40;;
75230;SDS011;63814;50.118;8.714;2022-11-20T02:41:18;30.43;;;22.90;;
75230;SDS011;63814;50.118;8.714;2022-11-20T02:43:45;26.10;;;20.80;;
75230;SDS011;63814;50.118;8.714;2022-11-20T02:46:12;29.83;;;22.27;;
75230;SDS011;63814;50.118;8.714;2022-11-20T02:48:38;32.63;;;21.83;;
75230;SDS011;63814;50.118;8.714;2022-11-20T02:51:05;26.20;;;20.97;;
75230;SDS011;63814;50.118;8.714;2022-11-20T02:53:31;28.33;;;21.13;;
75230;SDS011;63814;50.118;8.714;2022-11-20T02:55:58;27.33;;;21.33;;
75230;SDS011;63814;50.118;8.714;2022-11-20T02:58:26;26.73;;;20.83;;
75230;SDS011;63814;50.118;8.714;2022-11-20T03:00:52;28.37;;;21.83;;
75230;SDS011;63814;50.118;8.714;2022-11-20T03:03:19;23.70;;;18.30;;
75230;SDS011;63814;50.118;8.714;2022-11-20T03:05:45;26.00;;;19.67;;
75230;SDS011;63814;50.118;8.714;2022-11-20T03:08:12;23.40;;;18.30;;
75230;SDS011;63814;50.118;8.714;2022-11-20T03:10:38;25.63;;;19.67;;
75230;SDS011;63814;50.118;8.714;2022-11-20T03:13:05;25.83;;;19.93;;
75230;SDS011;63814;50.118;8.714;2022-11-20T03:15:32;25.80;;;20.47;;
75230;SDS011;63814;50.118;8.714;2022-11-20T03:17:59;24.67;;;18.90;;
75230;SDS011;63814;50.118;8.714;2022-11-20T03:20:25;25.20;;;20.53;;
75230;SDS011;63814;50.118;8.714;2022-11-20T03:22:53;25.83;;;19.67;;
75230;SDS011;63814;50.118;8.714;2022-11-20T03:25:19;27.57;;;20.73;;
75230;SDS011;63814;50.118;8.714;2022-11-20T03:27:46;25.43;;;19.60;;
75230;SDS011;63814;50.118;8.714;2022-11-20T03:30:13;26.47;;;20.43;;
75230;SDS011;63814;50.118;8.714;2022-11-20T03:32:41;25.63;;;20.40;;
75230;SDS011;63814;50.118;8.714;2022-11-20T03:35:08;27.23;;;21.53;;
75230;SDS011;63814;50.118;8.714;2022-11-20T03:37:35;26.33;;;20.33;;
75230;SDS011;63814;50.118;8.714;2022-11-20T03:40:01;25.13;;;19.43;;
75230;SDS011;63814;50.118;8.714;2022-11-20T03:42:28;30.20;;;22.23;;
75230;SDS011;63814;50.118;8.714;2022-11-20T03:45:12;27.87;;;20.90;;
75230;SDS011;63814;50.118;8.714;2022-11-20T03:47:39;28.50;;;20.97;;
75230;SDS011;63814;50.118;8.714;2022-11-20T03:50:08;26.13;;;20.67;;
75230;SDS011;63814;50.118;8.714;2022-11-20T03:52:36;29.23;;;21.73;;
75230;SDS011;63814;50.118;8.714;2022-11-20T03:55:03;25.00;;;19.77;;
75230;SDS011;63814;50.118;8.714;2022-11-20T03:57:30;27.57;;;22.00;;
75230;SDS011;63814;50.118;8.714;2022-11-20T03:59:57;30.67;;;23.03;;
75230;SDS011;63814;50.118;8.714;2022-11-20T04:02:23;29.30;;;22.87;;
75230;SDS011;63814;50.118;8.714;2022-11-20T04:04:51;28.80;;;21.57;;
75230;SDS011;63814;50.118;8.714;2022-11-20T04:07:18;27.90;;;21.00;;
75230;SDS011;63814;50.118;8.714;2022-11-20T04:09:44;28.70;;;22.30;;
75230;SDS011;63814;50.118;8.714;2022-11-20T04:12:11;30.87;;;22.90;;
75230;SDS011;63814;50.118;8.714;2022-11-20T04:14:37;28.27;;;21.30;;
75230;SDS011;63814;50.118;8.714;2022-11-20T04:17:04;27.87;;;21.33;;
75230;SDS011;63814;50.118;8.714;2022-11-20T04:19:30;26.83;;;20.33;;
75230;SDS011;63814;50.118;8.714;2022-11-20T04:21:58;25.80;;;20.57;;
75230;SDS011;63814;50.118;8.714;2022-11-20T04:24:25;28.03;;;21.47;;
75230;SDS011;63814;50.118;8.714;2022-11-20T04:26:52;28.50;;;21.13;;
75230;SDS011;63814;50.118;8.714;2022-11-20T04:29:18;30.40;;;21.13;;
75230;SDS011;63814;50.118;8.714;2022-11-20T04:31:45;29.87;;;22.00;;
75230;SDS011;63814;50.118;8.714;2022-11-20T04:34:11;28.20;;;21.43;;
75230;SDS011;63814;50.118;8.714;2022-11-20T04:36:38;26.00;;;20.03;;
75230;SDS011;63814;50.118;8.714;2022-11-20T04:39:06;28.47;;;20.97;;
75230;SDS011;63814;50.118;8.714;2022-11-20T04:41:33;27.03;;;20.47;;
75230;SDS011;63814;50.118;8.714;2022-11-20T04:44:02;29.37;;;22.03;;
75230;SDS011;63814;50.118;8.714;2022-11-20T04:46:30;28.23;;;21.47;;
75230;SDS011;63814;50.118;8.714;2022-11-20T04:48:58;28.63;;;22.00;;
75230;SDS011;63814;50.118;8.714;2022-11-20T04:51:25;29.07;;;21.63;;
75230;SDS011;63814;50.118;8.714;2022-11-20T04:53:52;26.93;;;20.53;;
75230;SDS011;63814;50.118;8.714;2022-11-20T04:56:20;27.57;;;20.27;;
75230;SDS011;63814;50.118;8.714;2022-11-20T04:58:47;29.13;;;21.77;;
75230;SDS011;63814;50.118;8.714;2022-11-20T05:01:14;27.10;;;21.20;;
75230;SDS011;63814;50.118;8.714;2022-11-20T05:03:42;29.03;;;22.13;;
75230;SDS011;63814;50.118;8.714;2022-11-20T05:06:10;29.00;;;21.00;;
75230;SDS011;63814;50.118;8.714;2022-11-20T05:08:37;28.07;;;21.67;;
75230;SDS011;63814;50.118;8.714;2022-11-20T05:11:05;25.70;;;20.70;;
75230;SDS011;63814;50.118;8.714;2022-11-20T05:13:34;28.93;;;20.60;;
75230;SDS011;63814;50.118;8.714;2022-11-20T05:16:01;25.07;;;20.00;;
75230;SDS011;63814;50.118;8.714;2022-11-20T05:18:29;26.00;;;19.20;;
75230;SDS011;63814;50.118;8.714;2022-11-20T05:20:55;28.13;;;20.90;;
75230;SDS011;63814;50.118;8.714;2022-11-20T05:23:22;31.53;;;23.20;;
75230;SDS011;63814;50.118;8.714;2022-11-20T05:25:51;25.87;;;20.03;;
75230;SDS011;63814;50.118;8.714;2022-11-20T05:28:18;29.40;;;20.80;;
75230;SDS011;63814;50.118;8.714;2022-11-20T05:30:46;26.57;;;20.07;;
75230;SDS011;63814;50.118;8.714;2022-11-20T05:33:13;30.50;;;22.00;;
75230;SDS011;63814;50.118;8.714;2022-11-20T05:35:40;29.93;;;21.87;;
75230;SDS011;63814;50.118;8.714;2022-11-20T05:38:07;32.17;;;22.63;;
75230;SDS011;63814;50.118;8.714;2022-11-20T05:40:33;34.77;;;23.40;;
75230;SDS011;63814;50.118;8.714;2022-11-20T05:43:00;31.57;;;21.77;;
75230;SDS011;63814;50.118;8.714;2022-11-20T05:45:27;34.17;;;23.23;;
75230;SDS011;63814;50.118;8.714;2022-11-20T05:47:58;33.47;;;22.50;;
75230;SDS011;63814;50.118;8.714;2022-11-20T05:50:25;32.43;;;21.87;;
75230;SDS011;63814;50.118;8.714;2022-11-20T05:52:52;31.53;;;22.53;;
75230;SDS011;63814;50.118;8.714;2022-11-20T05:55:19;33.57;;;23.13;;
75230;SDS011;63814;50.118;8.714;2022-11-20T05:57:45;34.10;;;23.50;;
75230;SDS011;63814;50.118;8.714;2022-11-20T06:00:12;37.70;;;24.87;;
75230;SDS011;63814;50.118;8.714;2022-11-20T06:02:39;34.13;;;23.60;;
75230;SDS011;63814;50.118;8.714;2022-11-20T06:05:08;38.93;;;25.13;;
75230;SDS011;63814;50.118;8.714;2022-11-20T06:07:34;35.90;;;23.53;;
75230;SDS011;63814;50.118;8.714;2022-11-20T06:10:01;32.43;;;23.03;;
75230;SDS011;63814;50.118;8.714;2022-11-20T06:12:27;35.20;;;23.40;;
75230;SDS011;63814;50.118;8.714;2022-11-20T06:14:54;35.37;;;24.20;;
75230;SDS011;63814;50.118;8.714;2022-11-20T06:17:20;33.07;;;22.90;;
75230;SDS011;63814;50.118;8.714;2022-11-20T06:19:47;33.00;;;23.47;;
75230;SDS011;63814;50.118;8.714;2022-11-20T06:22:14;33.63;;;22.90;;
75230;SDS011;63814;50.118;8.714;2022-11-20T06:24:41;34.27;;;23.83;;
75230;SDS011;63814;50.118;8.714;2022-11-20T06:27:07;35.20;;;23.13;;
75230;SDS011;63814;50.118;8.714;2022-11-20T06:29:34;35.17;;;23.07;;
75230;SDS011;63814;50.118;8.714;2022-11-20T06:32:00;31.30;;;21.83;;
75230;SDS011;63814;50.118;8.714;2022-11-20T06:34:27;31.60;;;21.87;;
75230;SDS011;63814;50.118;8.714;2022-11-20T06:36:53;32.13;;;22.00;;
75230;SDS011;63814;50.118;8.714;2022-11-20T06:39:21;32.07;;;21.67;;
75230;SDS011;63814;50.118;8.714;2022-11-20T06:41:48;36.23;;;23.43;;
75230;SDS011;63814;50.118;8.714;2022-11-20T06:44:14;35.43;;;23.73;;
75230;SDS011;63814;50.118;8.714;2022-11-20T06:46:41;34.10;;;22.70;;
75230;SDS011;63814;50.118;8.714;2022-11-20T06:49:07;35.63;;;24.47;;
75230;SDS011;63814;50.118;8.714;2022-11-20T06:51:33;38.63;;;24.53;;
75230;SDS011;63814;50.118;8.714;2022-11-20T06:54:00;40.07;;;25.50;;
75230;SDS011;63814;50.118;8.714;2022-11-20T06:56:28;39.07;;;25.93;;
75230;SDS011;63814;50.118;8.714;2022-11-20T06:58:54;37.60;;;24.13;;
75230;SDS011;63814;50.118;8.714;2022-11-20T07:01:21;38.37;;;24.87;;
75230;SDS011;63814;50.118;8.714;2022-11-20T07:03:48;41.67;;;25.00;;
75230;SDS011;63814;50.118;8.714;2022-11-20T07:06:15;40.33;;;24.73;;
75230;SDS011;63814;50.118;8.714;2022-11-20T07:08:41;38.80;;;25.07;;
75230;SDS011;63814;50.118;8.714;2022-11-20T07:11:07;43.10;;;26.30;;
75230;SDS011;63814;50.118;8.714;2022-11-20T07:13:38;44.33;;;26.53;;
75230;SDS011;63814;50.118;8.714;2022-11-20T07:16:06;39.37;;;25.97;;
75230;SDS011;63814;50.118;8.714;2022-11-20T07:18:34;38.80;;;24.30;;
75230;SDS011;63814;50.118;8.714;2022-11-20T07:21:00;41.27;;;24.97;;
75230;SDS011;63814;50.118;8.714;2022-11-20T07:23:27;38.20;;;22.83;;
75230;SDS011;63814;50.118;8.714;2022-11-20T07:25:54;38.93;;;24.10;;
75230;SDS011;63814;50.118;8.714;2022-11-20T07:28:20;41.87;;;24.70;;
75230;SDS011;63814;50.118;8.714;2022-11-20T07:30:50;44.13;;;25.57;;
75230;SDS011;63814;50.118;8.714;2022-11-20T07:33:17;39.00;;;24.70;;
75230;SDS011;63814;50.118;8.714;2022-11-20T07:35:44;37.53;;;23.53;;
75230;SDS011;63814;50.118;8.714;2022-11-20T07:38:11;39.17;;;24.70;;
75230;SDS011;63814;50.118;8.714;2022-11-20T07:40:38;44.07;;;27.60;;
75230;SDS011;63814;50.118;8.714;2022-11-20T07:43:04;44.53;;;26.53;;
75230;SDS011;63814;50.118;8.714;2022-11-20T07:45:31;41.40;;;25.03;;
75230;SDS011;63814;50.118;8.714;2022-11-20T07:47:59;47.50;;;26.90;;
75230;SDS011;63814;50.118;8.714;2022-11-20T07:50:25;45.33;;;28.17;;
75230;SDS011;63814;50.118;8.714;2022-11-20T07:52:52;46.97;;;26.50;;
75230;SDS011;63814;50.118;8.714;2022-11-20T07:55:18;40.83;;;26.23;;
75230;SDS011;63814;50.118;8.714;2022-11-20T07:57:45;40.67;;;26.53;;
75230;SDS011;63814;50.118;8.714;2022-11-20T08:00:12;47.30;;;28.73;;
75230;SDS011;63814;50.118;8.714;2022-11-20T08:02:39;46.40;;;29.03;;
75230;SDS011;63814;50.118;8.714;2022-11-20T08:05:08;46.07;;;28.93;;
75230;SDS011;63814;50.118;8.714;2022-11-20T08:07:36;45.23;;;26.50;;
75230;SDS011;63814;50.118;8.714;2022-11-20T08:10:04;40.70;;;26.07;;
75230;SDS011;63814;50.118;8.714;2022-11-20T08:12:31;41.03;;;25.10;;
75230;SDS011;63814;50.118;8.714;2022-11-20T08:15:15;37.93;;;24.93;;
75230;SDS011;63814;50.118;8.714;2022-11-20T08:17:41;73.57;;;45.77;;
75230;SDS011;63814;50.118;8.714;2022-11-20T08:20:10;213.27;;;113.77;;
75230;SDS011;63814;50.118;8.714;2022-11-20T08:22:36;166.60;;;94.80;;
75230;SDS011;63814;50.118;8.714;2022-11-20T08:25:03;48.27;;;29.10;;
75230;SDS011;63814;50.118;8.714;2022-11-20T08:27:31;57.40;;;35.10;;
75230;SDS011;63814;50.118;8.714;2022-11-20T08:29:57;45.90;;;28.70;;
75230;SDS011;63814;50.118;8.714;2022-11-20T08:32:24;41.20;;;26.77;;
75230;SDS011;63814;50.118;8.714;2022-11-20T08:34:50;57.80;;;33.07;;
75230;SDS011;63814;50.118;8.714;2022-11-20T08:37:18;57.97;;;35.83;;
75230;SDS011;63814;50.118;8.714;2022-11-20T08:39:45;85.07;;;51.37;;
75230;SDS011;63814;50.118;8.714;2022-11-20T08:42:11;96.03;;;60.60;;
75230;SDS011;63814;50.118;8.714;2022-11-20T08:44:38;65.30;;;41.73;;
75230;SDS011;63814;50.118;8.714;2022-11-20T08:47:08;58.47;;;36.63;;
75230;SDS011;63814;50.118;8.714;2022-11-20T08:49:34;52.90;;;36.80;;
75230;SDS011;63814;50.118;8.714;2022-11-20T08:52:01;58.07;;;41.47;;
75230;SDS011;63814;50.118;8.714;2022-11-20T08:54:28;49.73;;;33.50;;
75230;SDS011;63814;50.118;8.714;2022-11-20T08:56:55;44.70;;;30.07;;
75230;SDS011;63814;50.118;8.714;2022-11-20T08:59:21;46.73;;;27.97;;
75230;SDS011;63814;50.118;8.714;2022-11-20T09:01:48;43.60;;;27.60;;
75230;SDS011;63814;50.118;8.714;2022-11-20T09:04:15;44.80;;;27.97;;
75230;SDS011;63814;50.118;8.714;2022-11-20T09:06:41;46.57;;;29.10;;
75230;SDS011;63814;50.118;8.714;2022-11-20T09:09:07;48.47;;;29.57;;
75230;SDS011;63814;50.118;8.714;2022-11-20T09:11:35;45.40;;;27.53;;
75230;SDS011;63814;50.118;8.714;2022-11-20T09:14:02;46.80;;;28.97;;
75230;SDS011;63814;50.118;8.714;2022-11-20T09:16:29;43.77;;;27.20;;
75230;SDS011;63814;50.118;8.714;2022-11-20T09:18:56;42.53;;;27.77;;
75230;SDS011;63814;50.118;8.714;2022-11-20T09:21:22;43.97;;;27.33;;
75230;SDS011;63814;50.118;8.714;2022-11-20T09:23:49;35.57;;;23.93;;
75230;SDS011;63814;50.118;8.714;2022-11-20T09:26:16;46.00;;;28.20;;
75230;SDS011;63814;50.118;8.714;2022-11-20T09:28:43;48.43;;;29.97;;
75230;SDS011;63814;50.118;8.714;2022-11-20T09:31:13;44.40;;;27.47;;
75230;SDS011;63814;50.118;8.714;2022-11-20T09:33:45;35.77;;;24.50;;
75230;SDS011;63814;50.118;8.714;2022-11-20T09:36:12;36.43;;;24.80;;
75230;SDS011;63814;50.118;8.714;2022-11-20T09:38:39;37.83;;;26.00;;
75230;SDS011;63814;50.118;8.714;2022-11-20T09:41:06;37.40;;;25.20;;
75230;SDS011;63814;50.118;8.714;2022-11-20T09:43:37;34.30;;;24.57;;
75230;SDS011;63814;50.118;8.714;2022-11-20T09:46:14;36.57;;;24.70;;
75230;SDS011;63814;50.118;8.714;2022-11-20T09:48:56;34.93;;;24.50;;
75230;SDS011;63814;50.118;8.714;2022-11-20T09:51:36;37.10;;;25.60;;
75230;SDS011;63814;50.118;8.714;2022-11-20T09:54:15;39.20;;;25.73;;
75230;SDS011;63814;50.118;8.714;2022-11-20T09:56:45;35.50;;;25.13;;
75230;SDS011;63814;50.118;8.714;2022-11-20T09:59:21;42.40;;;25.77;;
75230;SDS011;63814;50.118;8.714;2022-11-20T10:01:57;37.23;;;26.73;;
75230;SDS011;63814;50.118;8.714;2022-11-20T10:04:26;36.97;;;26.37;;
75230;SDS011;63814;50.118;8.714;2022-11-20T10:07:00;37.03;;;25.83;;
75230;SDS011;63814;50.118;8.714;2022-11-20T10:09:31;37.33;;;25.23;;
75230;SDS011;63814;50.118;8.714;2022-11-20T10:12:06;37.70;;;24.93;;
75230;SDS011;63814;50.118;8.714;2022-11-20T10:14:49;36.90;;;26.50;;
75230;SDS011;63814;50.118;8.714;2022-11-20T10:17:28;37.90;;;26.97;;
75230;SDS011;63814;50.118;8.714;2022-11-20T10:20:17;36.70;;;26.77;;
75230;SDS011;63814;50.118;8.714;2022-11-20T10:22:55;37.37;;;26.63;;
75230;SDS011;63814;50.118;8.714;2022-11-20T10:25:35;42.03;;;27.83;;
75230;SDS011;63814;50.118;8.714;2022-11-20T10:28:09;38.77;;;27.60;;
75230;SDS011;63814;50.118;8.714;2022-11-20T10:30:44;37.87;;;26.40;;
75230;SDS011;63814;50.118;8.714;2022-11-20T10:33:16;34.23;;;25.30;;
75230;SDS011;63814;50.118;8.714;2022-11-20T10:35:45;38.73;;;27.63;;
75230;SDS011;63814;50.118;8.714;2022-11-20T10:38:20;42.30;;;29.23;;
75230;SDS011;63814;50.118;8.714;2022-11-20T10:40:51;40.30;;;28.53;;
75230;SDS011;63814;50.118;8.714;2022-11-20T10:43:43;37.87;;;27.90;;
75230;SDS011;63814;50.118;8.714;2022-11-20T10:46:14;38.87;;;26.93;;
75230;SDS011;63814;50.118;8.714;2022-11-20T10:48:43;39.63;;;27.40;;
75230;SDS011;63814;50.118;8.714;2022-11-20T10:51:13;38.23;;;27.77;;
75230;SDS011;63814;50.118;8.714;2022-11-20T10:53:51;34.23;;;24.13;;
75230;SDS011;63814;50.118;8.714;2022-11-20T10:56:25;36.83;;;25.13;;
75230;SDS011;63814;50.118;8.714;2022-11-20T10:59:07;36.47;;;26.07;;
75230;SDS011;63814;50.118;8.714;2022-11-20T11:01:47;38.53;;;25.07;;
75230;SDS011;63814;50.118;8.714;2022-11-20T11:04:18;34.43;;;24.03;;
75230;SDS011;63814;50.118;8.714;2022-11-20T11:06:56;35.67;;;26.07;;
75230;SDS011;63814;50.118;8.714;2022-11-20T11:09:32;34.13;;;25.23;;
75230;SDS011;63814;50.118;8.714;2022-11-20T11:12:05;37.33;;;26.10;;
75230;SDS011;63814;50.118;8.714;2022-11-20T11:14:41;39.93;;;26.67;;
75230;SDS011;63814;50.118;8.714;2022-11-20T11:17:18;39.23;;;27.33;;
75230;SDS011;63814;50.118;8.714;2022-11-20T11:19:56;45.67;;;29.47;;
75230;SDS011;63814;50.118;8.714;2022-11-20T11:22:24;44.43;;;31.53;;
75230;SDS011;63814;50.118;8.714;2022-11-20T11:24:51;44.00;;;29.70;;
75230;SDS011;63814;50.118;8.714;2022-11-20T11:27:18;49.17;;;33.00;;
75230;SDS011;63814;50.118;8.714;2022-11-20T11:29:44;48.13;;;33.33;;
75230;SDS011;63814;50.118;8.714;2022-11-20T11:32:12;47.50;;;32.57;;
75230;SDS011;63814;50.118;8.714;2022-11-20T11:34:41;44.23;;;30.93;;
75230;SDS011;63814;50.118;8.714;2022-11-20T11:37:10;51.10;;;34.47;;
75230;SDS011;63814;50.118;8.714;2022-11-20T11:39:41;47.47;;;33.03;;
75230;SDS011;63814;50.118;8.714;2022-11-20T11:42:09;47.23;;;31.23;;
75230;SDS011;63814;50.118;8.714;2022-11-20T11:44:43;43.30;;;30.07;;
75230;SDS011;63814;50.118;8.714;2022-11-20T11:47:29;48.00;;;30.43;;
75230;SDS011;63814;50.118;8.714;2022-11-20T11:50:07;43.50;;;28.07;;
75230;SDS011;63814;50.118;8.714;2022-11-20T11:52:42;41.70;;;28.47;;
75230;SDS011;63814;50.118;8.714;2022-11-20T11:55:14;39.77;;;28.87;;
75230;SDS011;63814;50.118;8.714;2022-11-20T11:57:46;43.03;;;28.33;;
75230;SDS011;63814;50.118;8.714;2022-11-20T12:00:18;42.73;;;29.27;;
75230;SDS011;63814;50.118;8.714;2022-11-20T12:02:49;41.57;;;30.17;;
75230;SDS011;63814;50.118;8.714;2022-11-20T12:05:26;39.57;;;28.57;;
75230;SDS011;63814;50.118;8.714;2022-11-20T12:07:56;41.93;;;28.93;;
75230;SDS011;63814;50.118;8.714;2022-11-20T12:10:34;40.77;;;27.97;;
75230;SDS011;63814;50.118;8.714;2022-11-20T12:13:13;35.93;;;26.00;;
75230;SDS011;63814;50.118;8.714;2022-11-20T12:15:46;32.53;;;23.87;;
75230;SDS011;63814;50.118;8.714;2022-11-20T12:18:14;31.13;;;23.70;;
75230;SDS011;63814;50.118;8.714;2022-11-20T12:20:45;30.63;;;22.67;;
75230;SDS011;63814;50.118;8.714;2022-11-20T12:23:20;29.97;;;23.33;;
75230;SDS011;63814;50.118;8.714;2022-11-20T12:25:53;29.90;;;23.43;;
75230;SDS011;63814;50.118;8.714;2022-11-20T12:31:17;29.87;;;23.53;;
75230;SDS011;63814;50.118;8.714;2022-11-20T12:34:06;31.87;;;24.63;;
75230;SDS011;63814;50.118;8.714;2022-11-20T12:36:45;32.20;;;22.60;;
75230;SDS011;63814;50.118;8.714;2022-11-20T12:39:27;33.90;;;24.93;;
75230;SDS011;63814;50.118;8.714;2022-11-20T12:42:05;33.83;;;25.77;;
75230;SDS011;63814;50.118;8.714;2022-11-20T12:45:05;34.03;;;25.20;;
75230;SDS011;63814;50.118;8.714;2022-11-20T12:47:43;32.57;;;25.03;;
75230;SDS011;63814;50.118;8.714;2022-11-20T12:50:28;33.10;;;24.37;;
75230;SDS011;63814;50.118;8.714;2022-11-20T12:53:05;43.30;;;30.40;;
75230;SDS011;63814;50.118;8.714;2022-11-20T12:55:41;45.00;;;31.60;;
75230;SDS011;63814;50.118;8.714;2022-11-20T12:58:11;36.27;;;27.60;;
75230;SDS011;63814;50.118;8.714;2022-11-20T13:00:43;36.30;;;26.30;;
75230;SDS011;63814;50.118;8.714;2022-11-20T13:03:33;36.90;;;26.23;;
75230;SDS011;63814;50.118;8.714;2022-11-20T13:06:10;33.00;;;24.93;;
75230;SDS011;63814;50.118;8.714;2022-11-20T13:08:42;34.47;;;24.43;;
75230;SDS011;63814;50.118;8.714;2022-11-20T13:11:14;35.57;;;24.63;;
75230;SDS011;63814;50.118;8.714;2022-11-20T13:13:52;32.33;;;24.77;;
75230;SDS011;63814;50.118;8.714;2022-11-20T13:16:32;33.23;;;23.87;;
75230;SDS011;63814;50.118;8.714;2022-11-20T13:19:09;32.70;;;24.23;;
75230;SDS011;63814;50.118;8.714;2022-11-20T13:21:38;34.50;;;25.03;;
75230;SDS011;63814;50.118;8.714;2022-11-20T13:24:07;34.73;;;25.40;;
75230;SDS011;63814;50.118;8.714;2022-11-20T13:26:48;35.20;;;25.70;;
75230;SDS011;63814;50.118;8.714;2022-11-20T13:29:40;35.33;;;24.07;;
75230;SDS011;63814;50.118;8.714;2022-11-20T13:32:13;31.77;;;23.73;;
75230;SDS011;63814;50.118;8.714;2022-11-20T13:34:51;30.27;;;22.80;;
75230;SDS011;63814;50.118;8.714;2022-11-20T13:37:24;32.13;;;23.20;;
75230;SDS011;63814;50.118;8.714;2022-11-20T13:40:04;35.10;;;25.00;;
75230;SDS011;63814;50.118;8.714;2022-11-20T13:42:38;33.57;;;23.53;;
75230;SDS011;63814;50.118;8.714;2022-11-20T13:45:10;30.97;;;22.73;;
75230;SDS011;63814;50.118;8.714;2022-11-20T13:47:47;30.97;;;23.10;;
75230;SDS011;63814;50.118;8.714;2022-11-20T13:50:14;28.10;;;21.33;;
75230;SDS011;63814;50.118;8.714;2022-11-20T13:52:43;30.33;;;21.67;;
75230;SDS011;63814;50.118;8.714;2022-11-20T13:55:20;27.77;;;20.57;;
75230;SDS011;63814;50.118;8.714;2022-11-20T13:58:04;26.03;;;20.10;;
75230;SDS011;63814;50.118;8.714;2022-11-20T14:00:43;26.30;;;19.97;;
75230;SDS011;63814;50.118;8.714;2022-11-20T14:03:14;28.60;;;20.67;;
75230;SDS011;63814;50.118;8.714;2022-11-20T14:05:47;30.43;;;23.03;;
75230;SDS011;63814;50.118;8.714;2022-11-20T14:08:21;30.10;;;21.73;;
75230;SDS011;63814;50.118;8.714;2022-11-20T14:11:02;29.03;;;21.87;;
75230;SDS011;63814;50.118;8.714;2022-11-20T14:13:30;28.03;;;21.70;;
75230;SDS011;63814;50.118;8.714;2022-11-20T14:15:57;27.93;;;21.63;;
75230;SDS011;63814;50.118;8.714;2022-11-20T14:18:25;24.77;;;18.97;;
75230;SDS011;63814;50.118;8.714;2022-11-20T14:20:52;30.23;;;21.60;;
75230;SDS011;63814;50.118;8.714;2022-11-20T14:23:25;27.57;;;21.53;;
75230;SDS011;63814;50.118;8.714;2022-11-20T14:25:53;28.27;;;19.77;;
75230;SDS011;63814;50.118;8.714;2022-11-20T14:28:21;26.20;;;20.43;;
75230;SDS011;63814;50.118;8.714;2022-11-20T14:30:51;23.60;;;17.97;;
75230;SDS011;63814;50.118;8.714;2022-11-20T14:33:18;26.27;;;19.10;;
75230;SDS011;63814;50.118;8.714;2022-11-20T14:35:50;28.40;;;20.37;;
75230;SDS011;63814;50.118;8.714;2022-11-20T14:38:18;25.00;;;18.40;;
75230;SDS011;63814;50.118;8.714;2022-11-20T14:40:48;22.30;;;17.03;;
75230;SDS011;63814;50.118;8.714;2022-11-20T14:43:19;25.83;;;20.07;;